createdAt,value
2022-10-13T00:00:15.719Z,12.93
2022-10-13T00:02:43.648Z,13.07
2022-10-13T00:05:13.009Z,13.47
2022-10-13T00:07:40.923Z,14.30
2022-10-13T00:10:09.139Z,13.60
2022-10-13T00:12:37.389Z,14.30
2022-10-13T00:15:05.840Z,13.60
2022-10-13T00:17:33.794Z,12.43
2022-10-13T00:20:01.783Z,13.47
2022-10-13T00:22:31.125Z,13.67
2022-10-13T00:24:59.036Z,12.87
2022-10-13T00:27:27.022Z,12.73
2022-10-13T00:29:54.954Z,12.80
2022-10-13T00:32:22.864Z,12.90
2022-10-13T00:34:50.816Z,12.60
2022-10-13T00:37:18.696Z,13.00
2022-10-13T00:39:48.020Z,14.17
2022-10-13T00:42:16.114Z,14.73
2022-10-13T00:45:00.910Z,13.93
2022-10-13T00:47:30.330Z,14.37
2022-10-13T00:49:58.555Z,15.27
2022-10-13T00:52:27.027Z,14.57
2022-10-13T00:54:57.088Z,15.30
2022-10-13T00:57:25.072Z,15.37
2022-10-13T00:59:53.119Z,16.10
2022-10-13T01:02:21.405Z,16.30
2022-10-13T01:04:50.091Z,14.90
2022-10-13T01:07:19.176Z,15.67
2022-10-13T01:09:47.439Z,16.10
2022-10-13T01:12:24.644Z,15.03
2022-10-13T01:14:56.916Z,13.13
2022-10-13T01:17:32.082Z,13.33
2022-10-13T01:20:23.557Z,12.80
2022-10-13T01:22:58.831Z,12.40
2022-10-13T01:25:40.629Z,12.27
2022-10-13T01:28:25.590Z,11.77
2022-10-13T01:30:59.669Z,11.87
2022-10-13T01:33:31.870Z,12.50
2022-10-13T01:36:05.253Z,10.43
2022-10-13T01:38:36.318Z,11.30
2022-10-13T01:41:10.233Z,11.33
2022-10-13T01:43:40.919Z,12.10
2022-10-13T01:46:13.773Z,11.63
2022-10-13T01:48:43.050Z,11.57
2022-10-13T01:51:12.532Z,10.90
2022-10-13T01:53:41.057Z,11.53
2022-10-13T01:56:09.099Z,11.87
2022-10-13T01:58:38.019Z,13.07
2022-10-13T02:01:12.269Z,11.83
2022-10-13T02:03:45.307Z,12.07
2022-10-13T02:06:16.727Z,11.83
2022-10-13T02:08:47.568Z,13.53
2022-10-13T02:11:17.009Z,13.63
2022-10-13T02:13:49.687Z,12.57
2022-10-13T02:16:20.807Z,13.03
2022-10-13T02:18:50.863Z,11.40
2022-10-13T02:21:18.980Z,12.57
2022-10-13T02:23:47.414Z,12.30
2022-10-13T02:26:15.683Z,13.03
2022-10-13T02:28:43.740Z,12.23
2022-10-13T02:31:11.808Z,12.23
2022-10-13T02:33:39.759Z,12.70
2022-10-13T02:36:09.121Z,12.73
2022-10-13T02:38:37.071Z,12.37
2022-10-13T02:41:05.032Z,13.87
2022-10-13T02:43:33.984Z,13.60
2022-10-13T02:46:01.865Z,13.87
2022-10-13T02:48:29.829Z,13.57
2022-10-13T02:50:57.737Z,14.17
2022-10-13T02:53:27.114Z,14.83
2022-10-13T02:55:55.045Z,15.80
2022-10-13T02:58:22.987Z,15.63
2022-10-13T03:00:50.923Z,16.47
2022-10-13T03:03:18.936Z,15.83
2022-10-13T03:05:47.078Z,13.77
2022-10-13T03:08:15.527Z,15.10
2022-10-13T03:10:44.860Z,15.10
2022-10-13T03:13:12.774Z,14.43
2022-10-13T03:15:40.698Z,14.83
2022-10-13T03:18:08.724Z,14.07
2022-10-13T03:20:36.646Z,14.50
2022-10-13T03:23:05.057Z,15.13
2022-10-13T03:25:33.294Z,14.20
2022-10-13T03:28:03.608Z,14.13
2022-10-13T03:30:31.671Z,14.67
2022-10-13T03:32:59.566Z,15.23
2022-10-13T03:35:27.620Z,15.03
2022-10-13T03:37:55.777Z,14.33
2022-10-13T03:40:24.730Z,15.27
2022-10-13T03:42:53.846Z,15.13
2022-10-13T03:45:23.328Z,15.80
2022-10-13T03:47:51.243Z,15.17
2022-10-13T03:50:19.188Z,17.13
2022-10-13T03:52:47.198Z,16.50
2022-10-13T03:55:15.311Z,17.97
2022-10-13T03:57:43.742Z,15.67
2022-10-13T04:00:12.394Z,15.50
2022-10-13T04:02:41.776Z,16.13
2022-10-13T04:05:10.072Z,17.07
2022-10-13T04:07:37.980Z,16.47
2022-10-13T04:10:10.223Z,16.93
2022-10-13T04:12:39.276Z,16.50
2022-10-13T04:15:07.800Z,16.17
2022-10-13T04:17:35.739Z,16.33
2022-10-13T04:20:05.985Z,16.23
2022-10-13T04:22:33.894Z,16.20
2022-10-13T04:25:01.807Z,15.90
2022-10-13T04:27:29.691Z,17.33
2022-10-13T04:29:58.084Z,15.93
2022-10-13T04:32:26.004Z,17.70
2022-10-13T04:34:53.907Z,15.87
2022-10-13T04:37:23.378Z,15.30
2022-10-13T04:39:51.289Z,17.80
2022-10-13T04:42:19.417Z,16.40
2022-10-13T04:44:47.614Z,16.00
2022-10-13T04:47:15.514Z,17.90
2022-10-13T04:49:43.488Z,17.50
2022-10-13T04:52:11.411Z,16.53
2022-10-13T04:54:40.753Z,14.97
2022-10-13T04:57:08.680Z,15.80
2022-10-13T04:59:36.647Z,14.10
2022-10-13T05:02:04.632Z,14.37
2022-10-13T05:04:32.606Z,14.87
2022-10-13T05:09:52.091Z,12.77
2022-10-13T05:12:20.204Z,12.30
2022-10-13T05:14:48.260Z,13.00
2022-10-13T05:17:16.237Z,13.50
2022-10-13T05:19:44.565Z,13.80
2022-10-13T05:22:12.448Z,14.10
2022-10-13T05:24:41.020Z,13.13
2022-10-13T05:27:11.133Z,14.77
2022-10-13T05:29:39.191Z,13.80
2022-10-13T05:32:07.528Z,13.77
2022-10-13T05:34:35.535Z,13.77
2022-10-13T05:37:03.474Z,15.77
2022-10-13T05:39:31.376Z,14.37
2022-10-13T05:41:59.300Z,14.30
2022-10-13T05:44:28.652Z,14.43
2022-10-13T05:46:56.699Z,15.50
2022-10-13T05:49:24.594Z,16.13
2022-10-13T05:51:54.778Z,15.40
2022-10-13T05:54:24.608Z,14.30
2022-10-13T05:56:54.463Z,14.17
2022-10-13T05:59:26.927Z,13.40
2022-10-13T06:01:56.963Z,13.27
2022-10-13T06:04:27.096Z,15.77
2022-10-13T06:06:55.117Z,15.33
2022-10-13T06:09:23.074Z,14.13
2022-10-13T06:11:51.379Z,15.63
2022-10-13T06:14:19.900Z,14.63
2022-10-13T06:16:47.820Z,17.43
2022-10-13T06:19:17.307Z,16.50
2022-10-13T06:21:45.199Z,16.03
2022-10-13T06:24:13.155Z,20.43
2022-10-13T06:26:41.382Z,15.47
2022-10-13T06:29:09.552Z,16.47
2022-10-13T06:31:37.512Z,15.30
2022-10-13T06:34:05.541Z,16.40
2022-10-13T06:36:34.895Z,15.00
2022-10-13T06:39:02.801Z,14.50
2022-10-13T06:41:30.692Z,15.13
2022-10-13T06:43:58.679Z,14.63
2022-10-13T06:46:26.584Z,15.20
2022-10-13T06:48:54.515Z,15.43
2022-10-13T06:51:22.802Z,14.37
2022-10-13T06:53:52.201Z,15.67
2022-10-13T06:56:20.102Z,15.33
2022-10-13T06:58:48.379Z,17.67
2022-10-13T07:01:16.395Z,15.57
2022-10-13T07:03:44.510Z,15.87
2022-10-13T07:06:12.404Z,16.53
2022-10-13T07:08:40.475Z,17.33
2022-10-13T07:11:15.880Z,16.70
2022-10-13T07:13:46.677Z,17.23
2022-10-13T07:16:15.391Z,17.00
2022-10-13T07:18:43.430Z,18.60
2022-10-13T07:21:11.437Z,16.70
2022-10-13T07:23:39.376Z,16.80
2022-10-13T07:26:08.849Z,18.40
2022-10-13T07:28:38.251Z,18.37
2022-10-13T07:31:08.845Z,18.80
2022-10-13T07:33:36.830Z,18.13
2022-10-13T07:36:04.866Z,20.13
2022-10-13T07:38:32.769Z,19.07
2022-10-13T07:41:01.777Z,18.73
2022-10-13T07:43:29.721Z,18.80
2022-10-13T07:46:01.131Z,19.30
2022-10-13T07:48:29.771Z,19.60
2022-10-13T07:50:57.786Z,21.13
2022-10-13T07:53:25.721Z,20.53
2022-10-13T07:55:53.613Z,21.37
2022-10-13T07:58:21.532Z,20.10
2022-10-13T08:00:56.768Z,20.33
2022-10-13T08:03:26.260Z,19.47
2022-10-13T08:05:54.662Z,21.43
2022-10-13T08:08:22.704Z,20.30
2022-10-13T08:10:50.669Z,20.57
2022-10-13T08:13:18.569Z,22.40
2022-10-13T08:15:46.815Z,21.97
2022-10-13T08:18:15.668Z,22.50
2022-10-13T08:20:45.612Z,22.83
2022-10-13T08:23:13.861Z,23.10
2022-10-13T08:25:42.155Z,22.70
2022-10-13T08:28:16.411Z,22.83
2022-10-13T08:30:44.552Z,25.33
2022-10-13T08:33:12.597Z,24.77
2022-10-13T08:35:40.611Z,23.80
2022-10-13T08:38:10.333Z,25.43
2022-10-13T08:40:38.923Z,24.77
2022-10-13T08:43:07.718Z,25.07
2022-10-13T08:45:41.332Z,25.00
2022-10-13T08:48:12.805Z,23.93
2022-10-13T08:50:42.362Z,24.70
2022-10-13T08:53:14.546Z,24.83
2022-10-13T08:55:43.323Z,26.00
2022-10-13T08:58:14.046Z,24.87
2022-10-13T09:00:42.887Z,25.77
2022-10-13T09:03:20.979Z,25.40
2022-10-13T09:05:56.909Z,26.03
2022-10-13T09:08:27.474Z,25.00
2022-10-13T09:10:55.376Z,25.80
2022-10-13T09:13:23.336Z,26.00
2022-10-13T09:15:51.649Z,26.27
2022-10-13T09:18:19.760Z,25.60
2022-10-13T09:20:47.820Z,26.87
2022-10-13T09:23:20.125Z,25.13
2022-10-13T09:25:50.700Z,25.80
2022-10-13T09:28:20.499Z,26.43
2022-10-13T09:30:48.524Z,24.53
2022-10-13T09:33:22.302Z,25.30
2022-10-13T09:35:50.855Z,25.07
2022-10-13T09:38:21.213Z,24.53
2022-10-13T09:40:59.413Z,24.80
2022-10-13T09:43:30.809Z,23.30
2022-10-13T09:45:59.251Z,25.40
2022-10-13T09:48:28.307Z,25.30
2022-10-13T09:50:57.239Z,25.03
2022-10-13T09:53:27.342Z,25.57
2022-10-13T09:56:10.169Z,25.90
2022-10-13T09:58:40.100Z,24.87
2022-10-13T10:01:10.143Z,25.00
2022-10-13T10:03:39.806Z,25.07
2022-10-13T10:09:02.058Z,24.83
2022-10-13T10:11:35.226Z,24.23
2022-10-13T10:14:13.605Z,24.83
2022-10-13T10:16:44.926Z,23.50
2022-10-13T10:19:18.368Z,25.60
2022-10-13T10:21:50.050Z,24.80
2022-10-13T10:24:22.832Z,24.03
2022-10-13T10:26:56.505Z,22.57
2022-10-13T10:29:27.530Z,23.67
2022-10-13T10:31:59.482Z,24.47
2022-10-13T10:34:35.956Z,22.07
2022-10-13T10:37:21.422Z,22.43
2022-10-13T10:39:54.092Z,23.73
2022-10-13T10:42:33.086Z,23.47
2022-10-13T10:45:03.822Z,22.60
2022-10-13T10:47:37.667Z,23.47
2022-10-13T10:50:06.729Z,21.63
2022-10-13T10:52:38.728Z,23.47
2022-10-13T10:55:15.312Z,20.10
2022-10-13T10:57:52.667Z,22.30
2022-10-13T11:00:22.250Z,21.30
2022-10-13T11:02:55.037Z,20.93
2022-10-13T11:05:23.087Z,19.60
2022-10-13T11:07:59.226Z,19.87
2022-10-13T11:10:28.087Z,21.70
2022-10-13T11:13:17.146Z,19.30
2022-10-13T11:15:45.741Z,19.83
2022-10-13T11:18:32.173Z,18.67
2022-10-13T11:21:00.427Z,18.30
2022-10-13T11:23:32.173Z,17.73
2022-10-13T11:26:14.873Z,16.23
2022-10-13T11:28:48.422Z,15.57
2022-10-13T11:31:33.654Z,16.20
2022-10-13T11:34:04.015Z,16.47
2022-10-13T11:36:47.898Z,15.03
2022-10-13T11:39:33.227Z,14.43
2022-10-13T11:42:06.852Z,15.40
2022-10-13T11:44:38.985Z,14.40
2022-10-13T11:47:13.300Z,13.70
2022-10-13T11:49:46.674Z,14.90
2022-10-13T11:52:41.588Z,13.50
2022-10-13T11:55:13.664Z,11.87
2022-10-13T11:57:41.607Z,11.57
2022-10-13T12:00:15.041Z,13.80
2022-10-13T12:02:49.118Z,12.77
2022-10-13T12:05:21.677Z,13.27
2022-10-13T12:07:50.708Z,13.30
2022-10-13T12:10:20.795Z,13.10
2022-10-13T12:12:49.823Z,12.73
2022-10-13T12:15:31.354Z,11.33
2022-10-13T12:17:59.316Z,12.67
2022-10-13T12:20:28.251Z,12.30
2022-10-13T12:22:56.645Z,10.10
2022-10-13T12:25:25.453Z,10.70
2022-10-13T12:27:54.046Z,24.40
2022-10-13T12:30:22.765Z,14.27
2022-10-13T12:32:53.452Z,11.00
2022-10-13T12:35:22.063Z,10.77
2022-10-13T12:37:50.118Z,10.40
2022-10-13T12:40:19.273Z,10.23
2022-10-13T12:42:47.506Z,10.30
2022-10-13T12:45:16.838Z,10.57
2022-10-13T12:47:48.899Z,10.77
2022-10-13T12:50:37.994Z,11.33
2022-10-13T12:53:17.109Z,9.90
2022-10-13T12:55:50.226Z,10.30
2022-10-13T12:58:20.187Z,11.03
2022-10-13T13:00:56.031Z,10.47
2022-10-13T13:03:26.409Z,10.50
2022-10-13T13:06:09.661Z,9.77
2022-10-13T13:08:37.619Z,9.73
2022-10-13T13:11:07.165Z,9.50
2022-10-13T13:13:35.540Z,9.63
2022-10-13T13:16:16.849Z,10.07
2022-10-13T13:18:45.112Z,9.70
2022-10-13T13:21:15.563Z,9.97
2022-10-13T13:23:43.818Z,10.17
2022-10-13T13:26:15.412Z,9.80
2022-10-13T13:28:45.802Z,10.27
2022-10-13T13:31:13.982Z,9.87
2022-10-13T13:33:41.985Z,9.77
2022-10-13T13:36:14.581Z,10.23
2022-10-13T13:38:43.924Z,9.50
2022-10-13T13:41:12.283Z,10.93
2022-10-13T13:43:40.432Z,9.70
2022-10-13T13:46:08.845Z,8.67
2022-10-13T13:48:36.738Z,8.93
2022-10-13T13:51:04.796Z,9.17
2022-10-13T13:53:32.746Z,8.77
2022-10-13T13:56:02.250Z,8.27
2022-10-13T13:58:30.179Z,8.00
2022-10-13T14:00:58.274Z,8.80
2022-10-13T14:03:26.212Z,9.53
2022-10-13T14:05:54.223Z,9.23
2022-10-13T14:08:22.134Z,8.07
2022-10-13T14:10:50.058Z,9.60
2022-10-13T14:13:19.469Z,9.23
2022-10-13T14:15:48.160Z,9.23
2022-10-13T14:18:16.593Z,9.33
2022-10-13T14:20:44.480Z,9.13
2022-10-13T14:23:12.434Z,10.00
2022-10-13T14:25:40.367Z,9.73
2022-10-13T14:28:08.319Z,11.30
2022-10-13T14:30:39.942Z,10.63
2022-10-13T14:33:08.078Z,10.17
2022-10-13T14:35:35.998Z,9.37
2022-10-13T14:38:03.920Z,8.37
2022-10-13T14:40:31.855Z,9.00
2022-10-13T14:42:59.760Z,9.47
2022-10-13T14:45:27.714Z,9.40
2022-10-13T14:47:57.044Z,10.37
2022-10-13T14:50:24.958Z,11.20
2022-10-13T14:52:52.859Z,12.70
2022-10-13T14:55:20.798Z,11.97
2022-10-13T14:57:49.814Z,10.47
2022-10-13T15:00:17.810Z,9.90
2022-10-13T15:02:45.773Z,9.77
2022-10-13T15:05:15.249Z,9.57
2022-10-13T15:07:43.166Z,9.60
2022-10-13T15:10:11.444Z,9.40
2022-10-13T15:12:39.380Z,9.77
2022-10-13T15:15:07.705Z,9.57
2022-10-13T15:17:37.073Z,9.30
2022-10-13T15:20:05.327Z,9.37
2022-10-13T15:22:34.772Z,9.90
2022-10-13T15:25:04.541Z,8.87
2022-10-13T15:27:32.443Z,10.10
2022-10-13T15:30:00.814Z,9.67
2022-10-13T15:32:28.788Z,10.13
2022-10-13T15:34:56.789Z,10.07
2022-10-13T15:37:24.715Z,9.27
2022-10-13T15:39:57.411Z,8.83
2022-10-13T15:42:25.723Z,8.97
2022-10-13T15:45:10.907Z,7.97
2022-10-13T15:47:39.473Z,8.37
2022-10-13T15:50:07.910Z,8.50
2022-10-13T15:52:38.609Z,9.10
2022-10-13T15:55:08.614Z,10.23
2022-10-13T15:57:36.520Z,10.07
2022-10-13T16:00:05.707Z,9.60
2022-10-13T16:02:33.632Z,9.30
2022-10-13T16:05:05.100Z,9.50
2022-10-13T16:07:33.055Z,9.90
2022-10-13T16:10:00.992Z,9.63
2022-10-13T16:12:30.362Z,9.93
2022-10-13T16:14:58.273Z,10.40
2022-10-13T16:17:26.243Z,9.53
2022-10-13T16:19:54.797Z,10.80
2022-10-13T16:22:23.051Z,10.27
2022-10-13T16:24:51.202Z,11.13
2022-10-13T16:27:19.419Z,10.97
2022-10-13T16:29:48.761Z,10.67
2022-10-13T16:32:16.676Z,10.23
2022-10-13T16:34:44.593Z,10.83
2022-10-13T16:37:12.535Z,11.00
2022-10-13T16:39:43.814Z,10.70
2022-10-13T16:42:13.447Z,10.03
2022-10-13T16:44:41.381Z,10.70
2022-10-13T16:47:13.651Z,10.43
2022-10-13T16:49:45.362Z,10.40
2022-10-13T16:52:13.251Z,10.53
2022-10-13T16:54:41.178Z,11.30
2022-10-13T16:57:09.172Z,10.17
2022-10-13T16:59:37.138Z,10.60
2022-10-13T17:02:05.108Z,10.63
2022-10-13T17:04:34.450Z,9.77
2022-10-13T17:07:02.367Z,11.43
2022-10-13T17:09:30.360Z,10.93
2022-10-13T17:11:59.647Z,9.47
2022-10-13T17:14:27.542Z,10.03
2022-10-13T17:16:57.790Z,9.37
2022-10-13T17:19:26.225Z,10.63
2022-10-13T17:21:55.560Z,10.80
2022-10-13T17:24:23.608Z,10.63
2022-10-13T17:26:51.660Z,10.70
2022-10-13T17:29:19.583Z,12.40
2022-10-13T17:31:47.655Z,10.77
2022-10-13T17:34:15.604Z,12.33
2022-10-13T17:36:43.566Z,11.57
2022-10-13T17:39:13.849Z,12.40
2022-10-13T17:41:41.903Z,11.27
2022-10-13T17:44:09.829Z,11.00
2022-10-13T17:46:39.152Z,11.40
2022-10-13T17:49:08.037Z,11.77
2022-10-13T17:51:36.283Z,11.23
2022-10-13T17:54:04.852Z,10.80
2022-10-13T17:56:34.461Z,10.83
2022-10-13T17:59:02.566Z,12.70
2022-10-13T18:01:31.692Z,11.43
2022-10-13T18:04:00.673Z,11.60
2022-10-13T18:06:32.568Z,12.60
2022-10-13T18:09:05.653Z,11.57
2022-10-13T18:11:35.148Z,13.00
2022-10-13T18:14:03.137Z,13.27
2022-10-13T18:16:31.024Z,13.23
2022-10-13T18:18:58.974Z,13.90
2022-10-13T18:21:27.442Z,13.10
2022-10-13T18:23:56.772Z,12.40
2022-10-13T18:26:25.404Z,13.03
2022-10-13T18:28:54.846Z,13.13
2022-10-13T18:31:23.735Z,14.47
2022-10-13T18:33:51.932Z,16.60
2022-10-13T18:36:23.522Z,14.17
2022-10-13T18:38:51.476Z,15.27
2022-10-13T18:41:20.214Z,15.70
2022-10-13T18:43:48.208Z,15.17
2022-10-13T18:46:17.580Z,14.30
2022-10-13T18:48:45.531Z,15.23
2022-10-13T18:51:15.499Z,15.90
2022-10-13T18:53:44.384Z,14.33
2022-10-13T18:56:13.681Z,13.60
2022-10-13T18:58:41.627Z,14.57
2022-10-13T19:01:10.848Z,14.37
2022-10-13T19:03:41.084Z,12.77
2022-10-13T19:06:09.638Z,14.10
2022-10-13T19:08:37.952Z,11.57
2022-10-13T19:11:11.668Z,11.37
2022-10-13T19:13:39.674Z,10.87
2022-10-13T19:16:07.689Z,10.10
2022-10-13T19:18:35.602Z,10.57
2022-10-13T19:21:05.180Z,9.57
2022-10-13T19:23:33.092Z,8.90
2022-10-13T19:26:01.114Z,9.27
2022-10-13T19:28:29.081Z,10.73
2022-10-13T19:30:57.009Z,11.20
2022-10-13T19:33:24.890Z,10.70
2022-10-13T19:35:52.988Z,10.40
2022-10-13T19:38:22.571Z,9.43
2022-10-13T19:40:51.357Z,10.80
2022-10-13T19:43:19.463Z,10.50
2022-10-13T19:45:47.885Z,10.10
2022-10-13T19:48:15.901Z,10.50
2022-10-13T19:50:43.871Z,11.30
2022-10-13T19:53:12.401Z,11.33
2022-10-13T19:55:42.053Z,12.77
2022-10-13T19:58:10.154Z,11.20
2022-10-13T20:00:38.251Z,12.87
2022-10-13T20:03:06.660Z,12.80
2022-10-13T20:05:34.672Z,11.63
2022-10-13T20:08:02.620Z,11.17
2022-10-13T20:10:30.549Z,11.60
2022-10-13T20:12:59.879Z,12.03
2022-10-13T20:15:27.768Z,11.60
2022-10-13T20:17:55.649Z,11.93
2022-10-13T20:20:23.597Z,11.37
2022-10-13T20:22:51.462Z,12.03
2022-10-13T20:25:20.171Z,11.80
2022-10-13T20:27:48.142Z,11.53
2022-10-13T20:30:17.631Z,11.50
2022-10-13T20:32:45.530Z,11.73
2022-10-13T20:35:13.689Z,12.70
2022-10-13T20:37:41.722Z,13.67
2022-10-13T20:40:10.079Z,14.07
2022-10-13T20:42:37.972Z,13.07
2022-10-13T20:45:06.381Z,13.03
2022-10-13T20:47:35.677Z,12.97
2022-10-13T20:50:04.968Z,12.70
2022-10-13T20:52:33.190Z,12.80
2022-10-13T20:55:01.097Z,12.97
2022-10-13T20:57:28.995Z,12.60
2022-10-13T20:59:56.922Z,11.17
2022-10-13T21:02:24.779Z,12.20
2022-10-13T21:04:54.125Z,12.50
2022-10-13T21:07:22.393Z,11.60
2022-10-13T21:09:53.797Z,11.67
2022-10-13T21:12:22.183Z,12.40
2022-10-13T21:14:50.102Z,11.83
2022-10-13T21:17:18.040Z,11.97
2022-10-13T21:19:45.970Z,11.93
2022-10-13T21:22:15.316Z,11.90
2022-10-13T21:24:43.296Z,12.27
2022-10-13T21:27:11.196Z,12.43
2022-10-13T21:29:39.066Z,12.00
2022-10-13T21:32:07.072Z,11.70
2022-10-13T21:34:35.113Z,12.53
2022-10-13T21:37:03.042Z,11.30
2022-10-13T21:39:32.340Z,10.67
2022-10-13T21:42:00.239Z,11.17
2022-10-13T21:44:30.081Z,11.07
2022-10-13T21:46:57.982Z,11.20
2022-10-13T21:49:25.845Z,11.60
2022-10-13T21:51:53.775Z,10.30
2022-10-13T21:54:21.760Z,11.10
2022-10-13T21:56:51.167Z,11.37
2022-10-13T21:59:19.085Z,11.37
2022-10-13T22:01:46.960Z,11.50
2022-10-13T22:04:15.675Z,12.07
2022-10-13T22:06:43.561Z,11.70
2022-10-13T22:09:11.534Z,11.90
2022-10-13T22:11:39.663Z,12.60
2022-10-13T22:14:09.292Z,11.97
2022-10-13T22:16:38.162Z,10.77
2022-10-13T22:19:06.225Z,12.90
2022-10-13T22:21:35.748Z,11.40
2022-10-13T22:24:05.222Z,11.57
2022-10-13T22:26:34.230Z,11.87
2022-10-13T22:29:03.099Z,11.50
2022-10-13T22:31:33.876Z,12.77
2022-10-13T22:34:02.600Z,11.20
2022-10-13T22:36:31.719Z,11.17
2022-10-13T22:39:00.577Z,10.50
2022-10-13T22:41:28.720Z,11.37
2022-10-13T22:43:57.237Z,10.87
2022-10-13T22:46:26.110Z,11.83
2022-10-13T22:48:56.355Z,9.93
2022-10-13T22:51:25.591Z,11.73
2022-10-13T22:53:53.521Z,10.40
2022-10-13T22:56:22.335Z,11.70
2022-10-13T22:58:51.124Z,10.53
2022-10-13T23:01:19.028Z,10.90
2022-10-13T23:03:48.205Z,9.97
2022-10-13T23:06:18.254Z,10.40
2022-10-13T23:08:46.196Z,9.03
2022-10-13T23:11:14.110Z,8.47
2022-10-13T23:13:42.059Z,8.97
2022-10-13T23:16:11.241Z,8.63
2022-10-13T23:18:39.177Z,8.20
2022-10-13T23:21:07.135Z,7.70
2022-10-13T23:23:36.593Z,8.23
2022-10-13T23:26:04.979Z,7.37
2022-10-13T23:28:33.201Z,7.50
2022-10-13T23:31:01.818Z,7.17
2022-10-13T23:33:30.112Z,7.10
2022-10-13T23:35:58.360Z,6.60
2022-10-13T23:38:26.611Z,6.07
2022-10-13T23:40:55.962Z,6.20
2022-10-13T23:43:23.816Z,5.73
2022-10-13T23:45:51.692Z,10.77
2022-10-13T23:48:19.588Z,7.83
2022-10-13T23:50:47.468Z,6.50
2022-10-13T23:53:15.388Z,6.03
2022-10-13T23:55:43.546Z,5.80
2022-10-13T23:58:12.973Z,5.97
